Latest Coastal Weather Observations for Weipa

IDQ60701

Issued at 8:51 pm EST Tuesday 22 August 2017 (issued every 10 minutes, with the page automatically refreshed every 10 minutes)

About coastal observations | Map of coastal stations | Coastal observations for QLD | Marine services | Other Formats
Station Details ID: 027045 Name: WEIPA AERO Lat: -12.68 Lon: 141.92 Height: 17.96 m
Data from the previous 72 hours. | See also: Recent months at Weipa
Date/Time
EST
Temp
°C
Wind Pressure Rain since
9am
mm
Weather Cloud Vis
km
Sea
Height
m
Swell
Dir  Spd
kts
Gust
kts
hPa Trend Height
m
Period
s
Dir
22/08:30pm 25.7 ENE 8 11 1015.0 - 0.0 - - 10 - - - -
22/08:00pm 26.4 ENE 9 13 1014.5 - 0.0 - - 10 - - - -
22/07:30pm 27.1 ENE 9 13 1014.0 - 0.0 - - 10 - - - -
22/07:00pm 27.9 ENE 9 13 1013.5 - 0.0 - - 10 - - - -
22/06:30pm 28.9 ENE 9 12 1013.0 - 0.0 - - 10 - - - -
22/06:00pm 30.2 E 12 15 1012.5 - 0.0 - - 10 - - - -
22/05:30pm 31.4 E 11 15 1012.1 - 0.0 - - 10 - - - -
22/05:00pm 31.8 ENE 13 18 1011.8 - 0.0 - - 10 - - - -
22/04:30pm 32.2 E 12 19 1011.7 - 0.0 - - 10 - - - -
22/04:00pm 32.4 ESE 12 15 1011.7 - 0.0 - - 10 - - - -
22/03:30pm 32.3 ESE 11 17 1011.7 - 0.0 - - 10 - - - -
22/03:00pm 32.5 E 13 18 1011.7 - 0.0 - - 10 - - - -
22/02:30pm 32.6 ESE 13 18 1012.1 - 0.0 - - 10 - - - -
22/02:00pm 31.6 ESE 12 22 1012.5 - 0.0 - - 10 - - - -
22/01:30pm 31.4 ESE 11 17 1012.8 - 0.0 - - 10 - - - -
22/01:00pm 31.0 ESE 12 17 1013.2 - 0.0 - - 10 - - - -
22/12:30pm 31.0 E 14 22 1013.7 - 0.0 - - 10 - - - -
22/12:00pm 30.0 ESE 13 19 1014.2 - 0.0 - - 10 - - - -
22/11:30am 28.7 ESE 13 18 1014.8 - 0.0 - - 10 - - - -
22/11:00am 27.2 ESE 10 15 1015.1 - 0.0 - - 10 - - - -
22/10:30am 27.0 ESE 13 20 1015.3 - 0.0 - - 10 - - - -
22/10:00am 25.7 E 13 20 1015.6 - 0.0 - - 10 - - - -
22/09:30am 24.0 E 10 13 1015.9 - 0.0 - - 10 - - - -
22/09:00am 23.0 ESE 9 15 1016.2 - 0.0 - - 10 - - - -
22/08:30am 21.8 ESE 7 9 1016.0 - 0.0 - - 10 - - - -
22/08:00am 19.5 CALM 0 3 1015.9 - 0.0 - - 10 - - - -
22/07:30am 17.6 SSE 4 5 1015.7 - 0.0 - - 10 - - - -
22/07:00am 16.2 SSE 4 5 1015.4 - 0.0 - - 10 - - - -
22/06:30am 16.3 CALM 0 3 1015.1 - 0.0 - - 10 - - - -
22/06:00am 16.5 CALM 0 0 1015.0 - 0.0 - - 10 - - - -
22/05:30am 17.0 SSE 3 4 1014.7 - 0.0 - - 10 - - - -
22/05:00am 16.8 CALM 0 0 1014.6 - 0.0 - - 10 - - - -
22/04:30am 17.3 S 4 5 1014.5 - 0.0 - - 10 - - - -
22/04:00am 17.6 CALM 0 0 1014.4 - 0.0 - - 10 - - - -
22/03:30am 18.1 SSE 2 5 1014.3 - 0.0 - - 10 - - - -
22/03:00am 18.6 SE 4 5 1014.3 - 0.0 - - 10 - - - -
22/02:30am 18.9 SSE 5 6 1014.4 - 0.0 - - 10 - - - -
22/02:00am 19.2 ESE 5 7 1014.5 - 0.0 - - 10 - - - -
22/01:30am 19.5 SE 4 6 1015.0 - 0.0 - - 10 - - - -
22/01:00am 19.9 ESE 5 5 1015.3 - 0.0 - - 10 - - - -
22/12:30am 20.4 SE 4 5 1015.7 - 0.0 - - 9 - - - -
22/12:00am 21.2 E 5 6 1015.9 - 0.0 - - 10 - - - -
 
Date/Time
EST
Temp
°C
Wind Pressure Rain since
9am
mm
Weather Cloud Vis
km
Sea
Height
m
Swell
Dir  Spd
kts
Gust
kts
hPa Trend Height
m
Period
s
Dir
21/11:30pm 21.8 E 7 9 1016.0 - 0.0 - - 10 - - - -
21/11:00pm 22.1 E 8 11 1016.0 - 0.0 - - 10 - - - -
21/10:30pm 22.5 E 9 13 1016.0 - 0.0 - - 10 - - - -
21/10:00pm 23.0 E 12 16 1015.9 - 0.0 - - 10 - - - -
21/09:30pm 23.5 E 14 20 1015.7 - 0.0 - - 10 - - - -
21/09:00pm 24.2 E 13 18 1015.4 - 0.0 - - 10 - - - -
21/08:30pm 24.7 E 12 15 1014.7 - 0.0 - - 10 - - - -
21/08:00pm 25.3 E 11 14 1014.2 - 0.0 - - 10 - - - -
21/07:30pm 25.7 E 9 11 1013.6 - 0.0 - - 10 - - - -
21/07:00pm 26.5 ENE 9 12 1013.2 - 0.0 - - 10 - - - -
21/06:30pm 27.3 ENE 10 15 1012.6 - 0.0 - - 10 - - - -
21/06:00pm 28.6 E 11 14 1012.1 - 0.0 - - 10 - - - -
21/05:30pm 29.4 ENE 13 17 1011.7 - 0.0 - - 10 - - - -
21/05:00pm 30.3 ESE 14 18 1011.5 - 0.0 - - 10 - - - -
21/04:30pm 31.2 ESE 13 17 1011.2 - 0.0 - - 10 - - - -
21/04:00pm 31.4 SE 13 20 1011.0 - 0.0 - - 10 - - - -
21/03:30pm 31.7 E 16 24 1010.8 - 0.0 - - 10 - - - -
21/03:00pm 31.9 E 14 20 1011.0 - 0.0 - - 10 - - - -
21/02:30pm 31.3 ESE 13 19 1011.2 - 0.0 - - 10 - - - -
21/02:00pm 30.9 E 13 19 1011.5 - 0.0 - - 10 - - - -
21/01:30pm 31.1 E 12 21 1011.9 - 0.0 - - 10 - - - -
21/01:00pm 30.6 ESE 15 22 1012.4 - 0.0 - - 10 - - - -
21/12:30pm 30.3 E 14 19 1012.9 - 0.0 - - 10 - - - -
21/12:00pm 29.9 E 15 22 1013.3 - 0.0 - - 10 - - - -
21/11:30am 29.0 ESE 15 22 1013.8 - 0.0 - - 10 - - - -
21/11:00am 28.2 ESE 14 23 1014.3 - 0.0 - - 10 - - - -
21/10:30am 27.0 E 15 21 1014.8 - 0.0 - - 10 - - - -
21/10:00am 26.6 E 12 19 1014.9 - 0.0 - - 10 - - - -
21/09:30am 25.0 E 13 19 1015.0 - 0.0 - - 10 - - - -
21/09:00am 24.1 ESE 10 13 1014.9 - 0.0 - - 10 - - - -
21/08:30am 22.7 SE 6 9 1014.8 - 0.0 - - 10 - - - -
21/08:00am 20.7 SSE 5 6 1014.6 - 0.0 - - 10 - - - -
21/07:30am 19.1 CALM 0 0 1014.4 - 0.0 - - 10 - - - -
21/07:00am 17.5 CALM 0 0 1014.1 - 0.0 - - 10 - - - -
21/06:30am 17.7 CALM 0 0 1013.7 - 0.0 - - 10 - - - -
21/06:00am 18.0 ESE 4 5 1013.3 - 0.0 - - 10 - - - -
21/05:30am 18.0 SE 4 5 1012.9 - 0.0 - - 10 - - - -
21/05:00am 17.9 SE 4 4 1012.7 - 0.0 - - 10 - - - -
21/04:30am 18.1 SE 3 4 1012.8 - 0.0 - - 10 - - - -
21/04:00am 18.2 SE 3 4 1012.8 - 0.0 - - 10 - - - -
21/03:30am 18.7 SE 1 5 1012.8 - 0.0 - - 10 - - - -
21/03:00am 19.2 CALM 0 0 1013.0 - 0.0 - - 10 - - - -
21/02:30am 19.2 ESE 4 5 1013.1 - 0.0 - - 10 - - - -
21/02:00am 19.5 ESE 3 4 1013.3 - 0.0 - - 10 - - - -
21/01:30am 20.3 ESE 3 4 1013.6 - 0.0 - - 10 - - - -
21/01:00am 20.7 ESE 3 4 1013.6 - 0.0 - - 10 - - - -
21/12:30am 21.7 ESE 4 5 1013.8 - 0.0 - - 10 - - - -
21/12:00am 22.4 ESE 6 7 1014.1 - 0.0 - - 10 - - - -
 
Date/Time
EST
Temp
°C
Wind Pressure Rain since
9am
mm
Weather Cloud Vis
km
Sea
Height
m
Swell
Dir  Spd
kts
Gust
kts
hPa Trend Height
m
Period
s
Dir
20/11:30pm 22.5 ESE 5 8 1014.1 - 0.0 - - 10 - - - -
20/11:00pm 23.0 ESE 5 7 1014.2 - 0.0 - - 10 - - - -
20/10:30pm 23.5 E 5 7 1014.2 - 0.0 - - 10 - - - -
20/10:00pm 23.9 E 6 9 1014.2 - 0.0 - - 10 - - - -
20/09:30pm 24.4 ESE 5 7 1014.1 - 0.0 - - 10 - - - -
20/09:00pm 25.2 E 10 13 1013.8 - 0.0 - - 10 - - - -
20/08:30pm 25.7 E 11 14 1013.4 - 0.0 - - 10 - - - -
20/08:00pm 26.2 E 10 13 1012.9 - 0.0 - - 10 - - - -
20/07:30pm 26.8 E 12 18 1012.4 - 0.0 - - 10 - - - -
20/07:00pm 27.5 ENE 11 15 1012.0 - 0.0 - - 10 - - - -
20/06:30pm 28.4 ENE 12 16 1011.6 - 0.0 - - 10 - - - -
20/06:00pm 29.8 E 12 16 1011.0 - 0.0 - - 10 - - - -
20/05:30pm 30.7 E 12 18 1010.8 - 0.0 - - 10 - - - -
20/05:00pm 31.2 E 13 16 1010.5 - 0.0 - - 10 - - - -
20/04:30pm 31.9 E 12 16 1010.4 - 0.0 - - 10 - - - -
20/04:00pm 31.5 E 13 17 1010.4 - 0.0 - - 10 - - - -
20/03:30pm 32.4 ENE 11 19 1010.4 - 0.0 - - 10 - - - -
20/03:00pm 32.4 E 11 17 1010.6 - 0.0 - - 10 - - - -
20/02:30pm 32.8 E 10 18 1011.0 - 0.0 - - 10 - - - -
20/02:00pm 32.4 E 12 22 1011.3 - 0.0 - - 10 - - - -
20/01:30pm 32.1 E 13 18 1011.7 - 0.0 - - 10 - - - -
20/01:00pm 31.8 E 14 21 1012.2 - 0.0 - - 10 - - - -
20/12:30pm 30.7 ESE 14 19 1012.5 - 0.0 - - 10 - - - -
20/12:00pm 30.8 ESE 15 22 1012.9 - 0.0 - - 10 - - - -
20/11:30am 30.9 E 13 17 1013.3 - 0.0 - - 10 - - - -
20/11:00am 29.7 E 15 21 1013.9 - 0.0 - - 10 - - - -
20/10:30am 28.7 ESE 16 23 1014.3 - 0.0 - - 10 - - - -
20/10:00am 27.4 E 10 16 1014.6 - 0.0 - - 10 - - - -
20/09:30am 25.9 E 11 16 1014.8 - 0.0 - - 10 - - - -
20/09:00am 24.8 ESE 8 12 1015.0 - 0.0 - - 10 - - - -
20/08:30am 22.6 SE 6 8 1014.9 - 0.0 - - 10 - - - -
20/08:00am 21.2 SE 5 6 1014.7 - 0.0 - - 10 - - - -
20/07:30am 20.3 CALM 0 0 1014.6 - 0.0 - - 10 - - - -
20/07:00am 18.6 CALM 0 0 1014.3 - 0.0 - - 10 - - - -
20/06:30am 18.9 CALM 0 0 1014.0 - 0.0 - - 10 - - - -
20/06:00am 18.9 CALM 0 2 1013.6 - 0.0 - - 10 - - - -
20/05:30am 19.1 SSE 1 3 1013.4 - 0.0 - - 10 - - - -
20/05:00am 19.0 CALM 0 0 1013.2 - 0.0 - - 10 - - - -
20/04:30am 19.0 SSE 2 5 1013.1 - 0.0 - - 10 - - - -
20/04:00am 19.0 SSE 3 4 1013.0 - 0.0 - - 10 - - - -
20/03:30am 19.3 CALM 0 0 1013.1 - 0.0 - - 10 - - - -
20/03:00am 19.7 S 2 4 1013.2 - 0.0 - - 10 - - - -
20/02:30am 19.8 SSE 4 5 1013.4 - 0.0 - - 10 - - - -
20/02:00am 20.0 CALM 0 0 1013.3 - 0.0 - - 10 - - - -
20/01:30am 20.7 CALM 0 2 1013.6 - 0.0 - - 10 - - - -
20/01:00am 21.7 ESE 4 6 1013.9 - 0.0 - - 10 - - - -
20/12:30am 22.2 SE 7 8 1014.0 - 0.0 - - 10 - - - -
20/12:00am 22.7 E 7 9 1013.9 - 0.0 - - 10 - - - -
 
Date/Time
EST
Temp
°C
Wind Pressure Rain since
9am
mm
Weather Cloud Vis
km
Sea
Height
m
Swell
Dir  Spd
kts
Gust
kts
hPa Trend Height
m
Period
s
Dir
19/11:30pm 23.1 E 8 11 1014.0 - 0.0 - - 10 - - - -
19/11:00pm 23.6 ENE 8 12 1014.1 - 0.0 - - 10 - - - -
19/10:30pm 24.0 NE 8 11 1014.2 - 0.0 - - 10 - - - -
19/10:00pm 24.5 ENE 7 8 1014.3 - 0.0 - - 10 - - - -
19/09:30pm 25.1 E 7 9 1014.0 - 0.0 - - 10 - - - -
19/09:00pm 25.6 E 7 9 1013.6 - 0.0 - - 10 - - - -

Other Formats:

Comma delimited format used in spreadsheet applications
http://www.bom.gov.au/fwo/IDQ60701/IDQ60701.94170.axf

JavaScript Object Notation format (JSON) in row-major order
http://www.bom.gov.au/fwo/IDQ60701/IDQ60701.94170.json